THY9704 LTCI-LTFM
Flight info
| Callsign | THY9704 |
|---|---|
| Flight time | 1h 59m |
| Altitude | 34000 |
| Route | BEYAZ UT368 BAYIR UT888 SIV UL615 TIMOP UT97 LETBU/N0418F280 T97 KANQO |
| Aircraft | MD82/M-SDFGIRWY/C |
Departure
| Time | 2026-05-05 06:53 |
|---|---|
| Airport | Van Ferit Melen Airport (LTCI) |
Arrival
| Time | 2026-05-05 08:52 |
|---|---|
| Airport | İstanbul Airport (LTFM) |
| Time | Latitude | Longitude | Altitude | Speed | Heading |
|---|---|---|---|---|---|
| 2026-05-05 06:24 | 38.46936 | 43.33706 | 5479 ft | 0 kts | 128° |
| 2026-05-05 06:41 | 38.46943 | 43.33696 | 5483 ft | 3 kts | 127° |
| 2026-05-05 06:41 | 38.46952 | 43.33675 | 5484 ft | 3 kts | 105° |
| 2026-05-05 06:42 | 38.46953 | 43.33654 | 5482 ft | 3 kts | 72° |
| 2026-05-05 06:42 | 38.46944 | 43.33634 | 5484 ft | 3 kts | 46° |
| 2026-05-05 06:42 | 38.46929 | 43.33617 | 5485 ft | 3 kts | 37° |
| 2026-05-05 06:42 | 38.46918 | 43.33606 | 5485 ft | 1 kts | 38° |
| 2026-05-05 06:46 | 38.46936 | 43.33624 | 5486 ft | 8 kts | 38° |
| 2026-05-05 06:46 | 38.46995 | 43.33682 | 5481 ft | 12 kts | 38° |
| 2026-05-05 06:47 | 38.47056 | 43.33744 | 5482 ft | 11 kts | 39° |
| 2026-05-05 06:47 | 38.47110 | 43.33778 | 5481 ft | 4 kts | 352° |
| 2026-05-05 06:47 | 38.47123 | 43.33770 | 5483 ft | 3 kts | 328° |
| 2026-05-05 06:47 | 38.47146 | 43.33738 | 5483 ft | 7 kts | 310° |
| 2026-05-05 06:48 | 38.47151 | 43.33731 | 5484 ft | 0 kts | 310° |
| 2026-05-05 06:48 | 38.47161 | 43.33717 | 5484 ft | 5 kts | 309° |
| 2026-05-05 06:48 | 38.47198 | 43.33662 | 5487 ft | 12 kts | 319° |
| 2026-05-05 06:48 | 38.47296 | 43.33690 | 5483 ft | 20 kts | 41° |
| 2026-05-05 06:49 | 38.47407 | 43.33805 | 5482 ft | 20 kts | 36° |
| 2026-05-05 06:49 | 38.47518 | 43.33911 | 5481 ft | 20 kts | 37° |
| 2026-05-05 06:49 | 38.47619 | 43.34011 | 5488 ft | 17 kts | 38° |
| 2026-05-05 06:49 | 38.47711 | 43.34098 | 5484 ft | 16 kts | 26° |
| 2026-05-05 06:50 | 38.47807 | 43.34120 | 5485 ft | 6 kts | 31° |
| 2026-05-05 06:50 | 38.47815 | 43.34136 | 5485 ft | 0 kts | 83° |
| 2026-05-05 06:50 | 38.47811 | 43.34163 | 5486 ft | 5 kts | 110° |
| 2026-05-05 06:50 | 38.47796 | 43.34179 | 5487 ft | 0 kts | 179° |
| 2026-05-05 06:51 | 38.47782 | 43.34169 | 5485 ft | 4 kts | 219° |
| 2026-05-05 06:51 | 38.47741 | 43.34127 | 5488 ft | 11 kts | 219° |
| 2026-05-05 06:51 | 38.47720 | 43.34105 | 5484 ft | 5 kts | 218° |
| 2026-05-05 06:51 | 38.47692 | 43.34079 | 5485 ft | 1 kts | 215° |
| 2026-05-05 06:52 | 38.47671 | 43.34061 | 5487 ft | 6 kts | 213° |
| 2026-05-05 06:52 | 38.47499 | 43.33896 | 5483 ft | 68 kts | 217° |
| 2026-05-05 06:52 | 38.46959 | 43.33366 | 5487 ft | 123 kts | 217° |
| 2026-05-05 06:52 | 38.46154 | 43.32592 | 5455 ft | 165 kts | 213° |
| 2026-05-05 06:53 | 38.45197 | 43.31643 | 5746 ft | 175 kts | 219° |
| 2026-05-05 06:53 | 38.44329 | 43.30571 | 6334 ft | 176 kts | 224° |
| 2026-05-05 06:53 | 38.43518 | 43.29336 | 6756 ft | 184 kts | 232° |
| 2026-05-05 06:53 | 38.42869 | 43.27929 | 7254 ft | 192 kts | 243° |
| 2026-05-05 06:54 | 38.42419 | 43.26197 | 7529 ft | 217 kts | 263° |
| 2026-05-05 06:54 | 38.42423 | 43.24322 | 8343 ft | 213 kts | 274° |
| 2026-05-05 06:54 | 38.42648 | 43.22378 | 8660 ft | 238 kts | 278° |
| 2026-05-05 06:54 | 38.43015 | 43.20170 | 8825 ft | 263 kts | 283° |
| 2026-05-05 06:55 | 38.43519 | 43.17896 | 9508 ft | 266 kts | 284° |
| 2026-05-05 06:55 | 38.44217 | 43.15726 | 10273 ft | 267 kts | 299° |
| 2026-05-05 06:55 | 38.45318 | 43.13784 | 10878 ft | 274 kts | 310° |
| 2026-05-05 06:55 | 38.46733 | 43.12104 | 11469 ft | 281 kts | 321° |
| 2026-05-05 06:56 | 38.48398 | 43.10762 | 12137 ft | 286 kts | 332° |
| 2026-05-05 06:56 | 38.50256 | 43.09794 | 12726 ft | 294 kts | 339° |
| 2026-05-05 06:56 | 38.52092 | 43.08510 | 12826 ft | 312 kts | 314° |
| 2026-05-05 06:56 | 38.53354 | 43.06216 | 12971 ft | 325 kts | 288° |
| 2026-05-05 06:57 | 38.53746 | 43.03340 | 13151 ft | 337 kts | 265° |
| 2026-05-05 06:57 | 38.53201 | 43.00394 | 13331 ft | 350 kts | 245° |
| 2026-05-05 06:57 | 38.52175 | 42.97496 | 13577 ft | 364 kts | 247° |
| 2026-05-05 06:57 | 38.51375 | 42.94398 | 14132 ft | 369 kts | 255° |
| 2026-05-05 06:58 | 38.50902 | 42.91163 | 14764 ft | 372 kts | 261° |
| 2026-05-05 06:58 | 38.50635 | 42.87866 | 15347 ft | 376 kts | 264° |
| 2026-05-05 06:58 | 38.50492 | 42.84515 | 15936 ft | 379 kts | 266° |
| 2026-05-05 06:58 | 38.50426 | 42.81180 | 16518 ft | 383 kts | 267° |
| 2026-05-05 06:59 | 38.50433 | 42.77763 | 17092 ft | 387 kts | 270° |
| 2026-05-05 06:59 | 38.50629 | 42.74323 | 17682 ft | 391 kts | 273° |
| 2026-05-05 06:59 | 38.50917 | 42.70850 | 18251 ft | 395 kts | 274° |
| 2026-05-05 06:59 | 38.51220 | 42.67355 | 18766 ft | 398 kts | 274° |
| 2026-05-05 07:00 | 38.51516 | 42.63829 | 19368 ft | 399 kts | 273° |
| 2026-05-05 07:00 | 38.51794 | 42.60301 | 19932 ft | 401 kts | 272° |
| 2026-05-05 07:00 | 38.52054 | 42.56752 | 20494 ft | 403 kts | 272° |
| 2026-05-05 07:00 | 38.52301 | 42.53171 | 21002 ft | 406 kts | 272° |
| 2026-05-05 07:01 | 38.52542 | 42.49571 | 21547 ft | 408 kts | 272° |
| 2026-05-05 07:01 | 38.52781 | 42.45949 | 22084 ft | 411 kts | 271° |
| 2026-05-05 07:01 | 38.53021 | 42.42300 | 22611 ft | 413 kts | 271° |
| 2026-05-05 07:01 | 38.53264 | 42.38629 | 23129 ft | 416 kts | 271° |
| 2026-05-05 07:02 | 38.53511 | 42.34932 | 23615 ft | 419 kts | 272° |
| 2026-05-05 07:02 | 38.53765 | 42.31208 | 24110 ft | 420 kts | 271° |
| 2026-05-05 07:02 | 38.53935 | 42.28748 | 24483 ft | 419 kts | 271° |
| 2026-05-05 07:02 | 38.54194 | 42.25043 | 25056 ft | 418 kts | 271° |
| 2026-05-05 07:03 | 38.54444 | 42.21340 | 25560 ft | 418 kts | 270° |
| 2026-05-05 07:03 | 38.54684 | 42.17632 | 26000 ft | 420 kts | 270° |
| 2026-05-05 07:03 | 38.54922 | 42.13911 | 26495 ft | 420 kts | 269° |
| 2026-05-05 07:03 | 38.55240 | 42.08973 | 27129 ft | 421 kts | 269° |
| 2026-05-05 07:04 | 38.55399 | 42.06465 | 27566 ft | 418 kts | 269° |
| 2026-05-05 07:04 | 38.55631 | 42.02790 | 28342 ft | 411 kts | 268° |
| 2026-05-05 07:04 | 38.55856 | 41.99172 | 28978 ft | 407 kts | 268° |
| 2026-05-05 07:04 | 38.56078 | 41.95589 | 29588 ft | 403 kts | 268° |
| 2026-05-05 07:05 | 38.56296 | 41.92037 | 30172 ft | 400 kts | 268° |
| 2026-05-05 07:05 | 38.56508 | 41.88496 | 30552 ft | 399 kts | 268° |
| 2026-05-05 07:05 | 38.56723 | 41.84953 | 30858 ft | 401 kts | 268° |
| 2026-05-05 07:05 | 38.56940 | 41.81391 | 31152 ft | 402 kts | 268° |
| 2026-05-05 07:06 | 38.57160 | 41.77826 | 31502 ft | 402 kts | 268° |
| 2026-05-05 07:06 | 38.57384 | 41.74267 | 31892 ft | 401 kts | 268° |
| 2026-05-05 07:06 | 38.57606 | 41.70757 | 32224 ft | 401 kts | 268° |
| 2026-05-05 07:06 | 38.57831 | 41.67203 | 32591 ft | 400 kts | 268° |
| 2026-05-05 07:07 | 38.58056 | 41.63663 | 32950 ft | 400 kts | 268° |
| 2026-05-05 07:07 | 38.58282 | 41.60125 | 33292 ft | 399 kts | 268° |
| 2026-05-05 07:07 | 38.58503 | 41.56595 | 33651 ft | 397 kts | 268° |
| 2026-05-05 07:07 | 38.58714 | 41.53065 | 33834 ft | 401 kts | 268° |
| 2026-05-05 07:08 | 38.58919 | 41.49484 | 33905 ft | 406 kts | 268° |
| 2026-05-05 07:08 | 38.59345 | 41.42198 | 33937 ft | 416 kts | 269° |
| 2026-05-05 07:08 | 38.59851 | 41.38503 | 33970 ft | 430 kts | 279° |
| 2026-05-05 07:09 | 38.60800 | 41.34825 | 33962 ft | 439 kts | 283° |
| 2026-05-05 07:09 | 38.62939 | 41.27473 | 33966 ft | 441 kts | 283° |
| 2026-05-05 07:10 | 38.65048 | 41.20130 | 33963 ft | 438 kts | 283° |
| 2026-05-05 07:10 | 38.67070 | 41.12785 | 33965 ft | 438 kts | 282° |
| 2026-05-05 07:11 | 38.69068 | 41.05380 | 33978 ft | 442 kts | 282° |
| 2026-05-05 07:11 | 38.71083 | 40.97937 | 33973 ft | 443 kts | 283° |
| 2026-05-05 07:12 | 38.73114 | 40.90491 | 33984 ft | 443 kts | 283° |
| 2026-05-05 07:12 | 38.75126 | 40.83028 | 33981 ft | 443 kts | 283° |
| 2026-05-05 07:13 | 38.77105 | 40.75608 | 33977 ft | 443 kts | 283° |
| 2026-05-05 07:13 | 38.79100 | 40.68132 | 33983 ft | 444 kts | 283° |
| 2026-05-05 07:14 | 38.81104 | 40.60648 | 33982 ft | 444 kts | 283° |
| 2026-05-05 07:14 | 38.83110 | 40.53158 | 33980 ft | 444 kts | 283° |
| 2026-05-05 07:15 | 38.85117 | 40.45656 | 33979 ft | 445 kts | 283° |
| 2026-05-05 07:15 | 38.87126 | 40.38143 | 33977 ft | 445 kts | 283° |
| 2026-05-05 07:16 | 38.89106 | 40.30628 | 33970 ft | 444 kts | 283° |
| 2026-05-05 07:16 | 38.91074 | 40.23097 | 33969 ft | 444 kts | 283° |
| 2026-05-05 07:17 | 38.93048 | 40.15570 | 33969 ft | 445 kts | 283° |
| 2026-05-05 07:17 | 38.95012 | 40.08093 | 33968 ft | 445 kts | 283° |
| 2026-05-05 07:18 | 38.96991 | 40.00556 | 33966 ft | 446 kts | 284° |
| 2026-05-05 07:18 | 38.98977 | 39.92994 | 33967 ft | 447 kts | 284° |
| 2026-05-05 07:19 | 39.00962 | 39.85410 | 33970 ft | 448 kts | 284° |
| 2026-05-05 07:19 | 39.02918 | 39.77807 | 33964 ft | 446 kts | 284° |
| 2026-05-05 07:20 | 39.04859 | 39.70241 | 33959 ft | 446 kts | 284° |
| 2026-05-05 07:20 | 39.06804 | 39.62665 | 33955 ft | 447 kts | 284° |
| 2026-05-05 07:21 | 39.08764 | 39.55062 | 33958 ft | 448 kts | 284° |
| 2026-05-05 07:21 | 39.10709 | 39.47501 | 33959 ft | 446 kts | 284° |
| 2026-05-05 07:22 | 39.12663 | 39.39911 | 33958 ft | 445 kts | 284° |
| 2026-05-05 07:22 | 39.14637 | 39.32357 | 33955 ft | 444 kts | 285° |
| 2026-05-05 07:23 | 39.16696 | 39.24855 | 33961 ft | 444 kts | 285° |
| 2026-05-05 07:23 | 39.18777 | 39.17365 | 33953 ft | 444 kts | 285° |
| 2026-05-05 07:24 | 39.20850 | 39.09860 | 33954 ft | 444 kts | 285° |
| 2026-05-05 07:24 | 39.22912 | 39.02361 | 33952 ft | 444 kts | 285° |
| 2026-05-05 07:25 | 39.24970 | 38.94851 | 33938 ft | 443 kts | 285° |
| 2026-05-05 07:25 | 39.27028 | 38.87353 | 33944 ft | 443 kts | 285° |
| 2026-05-05 07:26 | 39.29064 | 38.79906 | 33936 ft | 442 kts | 285° |
| 2026-05-05 07:26 | 39.31073 | 38.72412 | 33936 ft | 443 kts | 285° |
| 2026-05-05 07:27 | 39.33097 | 38.64889 | 33937 ft | 444 kts | 285° |
| 2026-05-05 07:27 | 39.35133 | 38.57326 | 33935 ft | 445 kts | 285° |
| 2026-05-05 07:28 | 39.37171 | 38.49786 | 33931 ft | 443 kts | 284° |
| 2026-05-05 07:28 | 39.39196 | 38.42272 | 33938 ft | 443 kts | 284° |
| 2026-05-05 07:29 | 39.41222 | 38.34739 | 33932 ft | 444 kts | 284° |
| 2026-05-05 07:29 | 39.43224 | 38.27230 | 33929 ft | 444 kts | 284° |
| 2026-05-05 07:30 | 39.45218 | 38.19643 | 33933 ft | 446 kts | 284° |
| 2026-05-05 07:30 | 39.48231 | 38.08217 | 33940 ft | 449 kts | 284° |
| 2026-05-05 07:31 | 39.50260 | 38.00554 | 33939 ft | 450 kts | 284° |
| 2026-05-05 07:31 | 39.52287 | 37.92886 | 33942 ft | 450 kts | 284° |
| 2026-05-05 07:32 | 39.54312 | 37.85214 | 33941 ft | 450 kts | 284° |
| 2026-05-05 07:32 | 39.56330 | 37.77518 | 33935 ft | 452 kts | 284° |
| 2026-05-05 07:33 | 39.58313 | 37.69832 | 33931 ft | 453 kts | 284° |
| 2026-05-05 07:33 | 39.60316 | 37.62075 | 33937 ft | 454 kts | 284° |
| 2026-05-05 07:34 | 39.62332 | 37.54288 | 33932 ft | 455 kts | 285° |
| 2026-05-05 07:34 | 39.64352 | 37.46498 | 33927 ft | 456 kts | 285° |
| 2026-05-05 07:35 | 39.66374 | 37.38685 | 33923 ft | 457 kts | 285° |
| 2026-05-05 07:35 | 39.68396 | 37.30856 | 33925 ft | 458 kts | 284° |
| 2026-05-05 07:36 | 39.70261 | 37.22945 | 33928 ft | 459 kts | 283° |
| 2026-05-05 07:36 | 39.72193 | 37.15019 | 33928 ft | 461 kts | 285° |
| 2026-05-05 07:37 | 39.74254 | 37.07132 | 33935 ft | 462 kts | 286° |
| 2026-05-05 07:37 | 39.76350 | 36.99240 | 33942 ft | 462 kts | 286° |
| 2026-05-05 07:38 | 39.78423 | 36.91378 | 33941 ft | 463 kts | 286° |
| 2026-05-05 07:38 | 39.79892 | 36.83287 | 33944 ft | 459 kts | 276° |
| 2026-05-05 07:39 | 39.80856 | 36.75064 | 33938 ft | 460 kts | 277° |
| 2026-05-05 07:39 | 39.81885 | 36.66846 | 33936 ft | 461 kts | 277° |
| 2026-05-05 07:40 | 39.82995 | 36.58637 | 33933 ft | 461 kts | 278° |
| 2026-05-05 07:40 | 39.84129 | 36.50428 | 33930 ft | 461 kts | 278° |
| 2026-05-05 07:41 | 39.85255 | 36.42197 | 33931 ft | 462 kts | 278° |
| 2026-05-05 07:41 | 39.86369 | 36.34009 | 33938 ft | 462 kts | 278° |
| 2026-05-05 07:42 | 39.87560 | 36.25781 | 33939 ft | 463 kts | 279° |
| 2026-05-05 07:42 | 39.88692 | 36.17525 | 33940 ft | 463 kts | 278° |
| 2026-05-05 07:43 | 39.89776 | 36.09252 | 33940 ft | 464 kts | 278° |
| 2026-05-05 07:43 | 39.90864 | 36.00953 | 33940 ft | 464 kts | 278° |
| 2026-05-05 07:44 | 39.91957 | 35.92664 | 33940 ft | 464 kts | 278° |
| 2026-05-05 07:44 | 39.93032 | 35.84375 | 33942 ft | 463 kts | 278° |
| 2026-05-05 07:45 | 39.94090 | 35.76090 | 33942 ft | 462 kts | 278° |
| 2026-05-05 07:45 | 39.95143 | 35.67815 | 33939 ft | 463 kts | 279° |
| 2026-05-05 07:46 | 39.96200 | 35.59560 | 33931 ft | 462 kts | 279° |
| 2026-05-05 07:46 | 39.97251 | 35.51329 | 33935 ft | 464 kts | 279° |
| 2026-05-05 07:47 | 39.98314 | 35.43014 | 33934 ft | 465 kts | 279° |
| 2026-05-05 07:47 | 39.99506 | 35.34720 | 33938 ft | 466 kts | 287° |
| 2026-05-05 07:48 | 40.01679 | 35.26751 | 33938 ft | 466 kts | 291° |
| 2026-05-05 07:48 | 40.04012 | 35.18856 | 33941 ft | 466 kts | 291° |
| 2026-05-05 07:49 | 40.06271 | 35.10936 | 33940 ft | 465 kts | 291° |
| 2026-05-05 07:49 | 40.08472 | 35.02998 | 33943 ft | 465 kts | 291° |
| 2026-05-05 07:50 | 40.10667 | 34.95055 | 33946 ft | 465 kts | 291° |
| 2026-05-05 07:50 | 40.12873 | 34.87104 | 33947 ft | 466 kts | 291° |
| 2026-05-05 07:51 | 40.14706 | 34.80483 | 33949 ft | 466 kts | 291° |
| 2026-05-05 07:51 | 40.16881 | 34.72502 | 33949 ft | 466 kts | 291° |
| 2026-05-05 07:52 | 40.19058 | 34.64501 | 33955 ft | 467 kts | 291° |
| 2026-05-05 07:52 | 40.21240 | 34.56504 | 33956 ft | 466 kts | 291° |
| 2026-05-05 07:53 | 40.23417 | 34.48537 | 33958 ft | 464 kts | 291° |
| 2026-05-05 07:53 | 40.25587 | 34.40592 | 33961 ft | 464 kts | 292° |
| 2026-05-05 07:54 | 40.27747 | 34.32679 | 33962 ft | 464 kts | 292° |
| 2026-05-05 07:54 | 40.29893 | 34.24700 | 33966 ft | 464 kts | 292° |
| 2026-05-05 07:55 | 40.32023 | 34.16707 | 33963 ft | 465 kts | 292° |
| 2026-05-05 07:55 | 40.34158 | 34.08721 | 33967 ft | 465 kts | 292° |
| 2026-05-05 07:56 | 40.36301 | 34.00721 | 33964 ft | 465 kts | 292° |
| 2026-05-05 07:56 | 40.38439 | 33.92746 | 33960 ft | 463 kts | 292° |
| 2026-05-05 07:57 | 40.40572 | 33.84771 | 33955 ft | 462 kts | 292° |
| 2026-05-05 07:57 | 40.42685 | 33.76859 | 33949 ft | 463 kts | 292° |
| 2026-05-05 07:58 | 40.45021 | 33.69001 | 33957 ft | 458 kts | 303° |
| 2026-05-05 07:58 | 40.48501 | 33.62050 | 33947 ft | 455 kts | 308° |
| 2026-05-05 07:59 | 40.52142 | 33.55242 | 33943 ft | 455 kts | 308° |
| 2026-05-05 07:59 | 40.55735 | 33.48389 | 33946 ft | 455 kts | 308° |
| 2026-05-05 08:00 | 40.59273 | 33.41484 | 33951 ft | 454 kts | 308° |
| 2026-05-05 08:00 | 40.62784 | 33.34591 | 33956 ft | 453 kts | 308° |
| 2026-05-05 08:01 | 40.66295 | 33.27714 | 33959 ft | 452 kts | 308° |
| 2026-05-05 08:01 | 40.69804 | 33.20838 | 33971 ft | 453 kts | 309° |
| 2026-05-05 08:02 | 40.73310 | 33.13943 | 33971 ft | 452 kts | 309° |
| 2026-05-05 08:02 | 40.76398 | 33.06678 | 33984 ft | 457 kts | 301° |
| 2026-05-05 08:03 | 40.79099 | 32.99139 | 33985 ft | 455 kts | 301° |
| 2026-05-05 08:03 | 40.81830 | 32.91637 | 33994 ft | 452 kts | 302° |
| 2026-05-05 08:04 | 40.84618 | 32.84204 | 33994 ft | 451 kts | 302° |
| 2026-05-05 08:04 | 40.87417 | 32.76803 | 34001 ft | 450 kts | 302° |
| 2026-05-05 08:05 | 40.90205 | 32.69394 | 34007 ft | 450 kts | 302° |
| 2026-05-05 08:05 | 40.92981 | 32.61982 | 34024 ft | 449 kts | 302° |
| 2026-05-05 08:06 | 40.95721 | 32.54580 | 34006 ft | 446 kts | 302° |
| 2026-05-05 08:06 | 40.98432 | 32.47217 | 34013 ft | 444 kts | 302° |
| 2026-05-05 08:07 | 41.01125 | 32.39924 | 34020 ft | 443 kts | 302° |
| 2026-05-05 08:07 | 41.03834 | 32.32591 | 34016 ft | 443 kts | 302° |
| 2026-05-05 08:08 | 41.06538 | 32.25270 | 34014 ft | 442 kts | 302° |
| 2026-05-05 08:08 | 41.09236 | 32.17942 | 34017 ft | 442 kts | 302° |
| 2026-05-05 08:09 | 41.11929 | 32.10619 | 34018 ft | 441 kts | 302° |
| 2026-05-05 08:09 | 41.13767 | 32.02810 | 34020 ft | 455 kts | 282° |
| 2026-05-05 08:10 | 41.14306 | 31.94392 | 34025 ft | 459 kts | 280° |
| 2026-05-05 08:10 | 41.14799 | 31.85940 | 34025 ft | 459 kts | 281° |
| 2026-05-05 08:11 | 41.15386 | 31.77527 | 34023 ft | 457 kts | 281° |
| 2026-05-05 08:11 | 41.16020 | 31.69139 | 34029 ft | 455 kts | 282° |
| 2026-05-05 08:12 | 41.16656 | 31.60812 | 34034 ft | 456 kts | 282° |
| 2026-05-05 08:12 | 41.17287 | 31.52427 | 34038 ft | 456 kts | 281° |
| 2026-05-05 08:13 | 41.17890 | 31.44034 | 34032 ft | 457 kts | 281° |
| 2026-05-05 08:13 | 41.18459 | 31.35637 | 34032 ft | 457 kts | 281° |
| 2026-05-05 08:14 | 41.19033 | 31.27218 | 34033 ft | 457 kts | 281° |
| 2026-05-05 08:14 | 41.19618 | 31.18793 | 34020 ft | 459 kts | 281° |
| 2026-05-05 08:15 | 41.19916 | 31.14547 | 33642 ft | 464 kts | 281° |
| 2026-05-05 08:15 | 41.20214 | 31.10281 | 33315 ft | 462 kts | 280° |
| 2026-05-05 08:15 | 41.20505 | 31.06056 | 33057 ft | 458 kts | 280° |
| 2026-05-05 08:15 | 41.20795 | 31.01843 | 32641 ft | 458 kts | 280° |
| 2026-05-05 08:16 | 41.21085 | 30.97634 | 32161 ft | 457 kts | 280° |
| 2026-05-05 08:16 | 41.21370 | 30.93429 | 31640 ft | 456 kts | 279° |
| 2026-05-05 08:16 | 41.21637 | 30.89231 | 31062 ft | 456 kts | 279° |
| 2026-05-05 08:16 | 41.21902 | 30.85055 | 30365 ft | 450 kts | 279° |
| 2026-05-05 08:17 | 41.22176 | 30.80900 | 29262 ft | 450 kts | 279° |
| 2026-05-05 08:17 | 41.22486 | 30.76811 | 28619 ft | 438 kts | 284° |
| 2026-05-05 08:17 | 41.23289 | 30.72999 | 28070 ft | 422 kts | 294° |
| 2026-05-05 08:17 | 41.24367 | 30.69430 | 27579 ft | 411 kts | 296° |
| 2026-05-05 08:18 | 41.25463 | 30.66032 | 27178 ft | 399 kts | 297° |
| 2026-05-05 08:18 | 41.26554 | 30.62694 | 26828 ft | 388 kts | 297° |
| 2026-05-05 08:18 | 41.27613 | 30.59444 | 26528 ft | 380 kts | 297° |
| 2026-05-05 08:18 | 41.28666 | 30.56184 | 26267 ft | 390 kts | 296° |
| 2026-05-05 08:19 | 41.29623 | 30.52719 | 26024 ft | 405 kts | 291° |
| 2026-05-05 08:19 | 41.30426 | 30.49128 | 25775 ft | 402 kts | 289° |
| 2026-05-05 08:19 | 41.31162 | 30.45563 | 25496 ft | 397 kts | 288° |
| 2026-05-05 08:19 | 41.31880 | 30.42043 | 25215 ft | 392 kts | 289° |
| 2026-05-05 08:20 | 41.32601 | 30.38553 | 24917 ft | 390 kts | 289° |
| 2026-05-05 08:20 | 41.33331 | 30.35089 | 24644 ft | 388 kts | 289° |
| 2026-05-05 08:20 | 41.34072 | 30.31637 | 24352 ft | 388 kts | 289° |
| 2026-05-05 08:20 | 41.34821 | 30.28198 | 24059 ft | 387 kts | 289° |
| 2026-05-05 08:21 | 41.35573 | 30.24748 | 23615 ft | 389 kts | 289° |
| 2026-05-05 08:21 | 41.36322 | 30.21305 | 23078 ft | 385 kts | 289° |
| 2026-05-05 08:21 | 41.37061 | 30.17899 | 22591 ft | 381 kts | 289° |
| 2026-05-05 08:21 | 41.37792 | 30.14523 | 22153 ft | 377 kts | 289° |
| 2026-05-05 08:22 | 41.38516 | 30.11176 | 21730 ft | 375 kts | 289° |
| 2026-05-05 08:22 | 41.39236 | 30.07848 | 21322 ft | 375 kts | 289° |
| 2026-05-05 08:22 | 41.39957 | 30.04508 | 20910 ft | 374 kts | 289° |
| 2026-05-05 08:22 | 41.40910 | 30.01317 | 20489 ft | 369 kts | 305° |
| 2026-05-05 08:23 | 41.42598 | 29.98809 | 20007 ft | 364 kts | 323° |
| 2026-05-05 08:23 | 41.44653 | 29.96835 | 19449 ft | 362 kts | 328° |
| 2026-05-05 08:23 | 41.46716 | 29.95013 | 18909 ft | 358 kts | 329° |
| 2026-05-05 08:23 | 41.48798 | 29.93220 | 18374 ft | 355 kts | 329° |
| 2026-05-05 08:24 | 41.50865 | 29.91461 | 17802 ft | 351 kts | 329° |
| 2026-05-05 08:24 | 41.52911 | 29.89717 | 17258 ft | 346 kts | 329° |
| 2026-05-05 08:24 | 41.54923 | 29.87977 | 16741 ft | 342 kts | 329° |
| 2026-05-05 08:24 | 41.56895 | 29.86244 | 16277 ft | 336 kts | 328° |
| 2026-05-05 08:25 | 41.58798 | 29.84546 | 16123 ft | 321 kts | 328° |
| 2026-05-05 08:25 | 41.60524 | 29.82780 | 16031 ft | 306 kts | 314° |
| 2026-05-05 08:25 | 41.61563 | 29.80365 | 15947 ft | 302 kts | 288° |
| 2026-05-05 08:25 | 41.61812 | 29.77525 | 15724 ft | 314 kts | 274° |
| 2026-05-05 08:26 | 41.61797 | 29.74604 | 15474 ft | 316 kts | 271° |
| 2026-05-05 08:26 | 41.61718 | 29.71667 | 15206 ft | 317 kts | 270° |
| 2026-05-05 08:26 | 41.61595 | 29.68727 | 14958 ft | 316 kts | 269° |
| 2026-05-05 08:26 | 41.61451 | 29.65798 | 14709 ft | 315 kts | 269° |
| 2026-05-05 08:27 | 41.61305 | 29.62877 | 14462 ft | 315 kts | 269° |
| 2026-05-05 08:27 | 41.61168 | 29.59965 | 14225 ft | 314 kts | 269° |
| 2026-05-05 08:27 | 41.60704 | 29.57119 | 13992 ft | 318 kts | 246° |
| 2026-05-05 08:27 | 41.59406 | 29.54717 | 13557 ft | 326 kts | 225° |
| 2026-05-05 08:28 | 41.57693 | 29.52713 | 13025 ft | 327 kts | 221° |
| 2026-05-05 08:28 | 41.55940 | 29.50795 | 12537 ft | 325 kts | 220° |
| 2026-05-05 08:28 | 41.54190 | 29.48908 | 12076 ft | 321 kts | 220° |
| 2026-05-05 08:28 | 41.52479 | 29.47077 | 11622 ft | 319 kts | 220° |
| 2026-05-05 08:29 | 41.50756 | 29.45223 | 11147 ft | 317 kts | 221° |
| 2026-05-05 08:29 | 41.49062 | 29.43373 | 10753 ft | 313 kts | 222° |
| 2026-05-05 08:29 | 41.47402 | 29.41531 | 10376 ft | 308 kts | 222° |
| 2026-05-05 08:30 | 41.44228 | 29.37948 | 10087 ft | 290 kts | 223° |
| 2026-05-05 08:30 | 41.42670 | 29.36276 | 10037 ft | 283 kts | 220° |
| 2026-05-05 08:30 | 41.41112 | 29.34723 | 10016 ft | 278 kts | 219° |
| 2026-05-05 08:30 | 41.39541 | 29.33193 | 10015 ft | 281 kts | 218° |
| 2026-05-05 08:31 | 41.37957 | 29.31662 | 10004 ft | 282 kts | 218° |
| 2026-05-05 08:31 | 41.36336 | 29.30169 | 9993 ft | 285 kts | 209° |
| 2026-05-05 08:31 | 41.34434 | 29.29449 | 10011 ft | 287 kts | 183° |
| 2026-05-05 08:31 | 41.32436 | 29.29413 | 10000 ft | 287 kts | 179° |
| 2026-05-05 08:32 | 41.30444 | 29.29462 | 9990 ft | 287 kts | 178° |
| 2026-05-05 08:32 | 41.28447 | 29.29520 | 9991 ft | 286 kts | 178° |
| 2026-05-05 08:32 | 41.26453 | 29.29590 | 9994 ft | 286 kts | 178° |
| 2026-05-05 08:32 | 41.24463 | 29.29663 | 9995 ft | 286 kts | 176° |
| 2026-05-05 08:33 | 41.22560 | 29.30302 | 10002 ft | 283 kts | 148° |
| 2026-05-05 08:33 | 41.22024 | 29.30756 | 10009 ft | 282 kts | 138° |
| 2026-05-05 08:33 | 41.20514 | 29.32743 | 10008 ft | 279 kts | 128° |
| 2026-05-05 08:33 | 41.19243 | 29.34648 | 9990 ft | 279 kts | 128° |
| 2026-05-05 08:34 | 41.17966 | 29.36587 | 9993 ft | 279 kts | 128° |
| 2026-05-05 08:34 | 41.16701 | 29.38536 | 9993 ft | 279 kts | 127° |
| 2026-05-05 08:34 | 41.15310 | 29.40345 | 10007 ft | 281 kts | 141° |
| 2026-05-05 08:34 | 41.13705 | 29.41824 | 9992 ft | 282 kts | 145° |
| 2026-05-05 08:35 | 41.12052 | 29.43227 | 9991 ft | 281 kts | 146° |
| 2026-05-05 08:35 | 41.10392 | 29.44612 | 9998 ft | 281 kts | 146° |
| 2026-05-05 08:35 | 41.08732 | 29.45981 | 9997 ft | 281 kts | 146° |
| 2026-05-05 08:35 | 41.07013 | 29.47210 | 9999 ft | 281 kts | 157° |
| 2026-05-05 08:36 | 41.05166 | 29.48042 | 9998 ft | 281 kts | 162° |
| 2026-05-05 08:36 | 41.03286 | 29.48774 | 9996 ft | 281 kts | 163° |
| 2026-05-05 08:36 | 41.01406 | 29.49499 | 9999 ft | 282 kts | 163° |
| 2026-05-05 08:36 | 40.99531 | 29.50226 | 10007 ft | 280 kts | 163° |
| 2026-05-05 08:37 | 40.97638 | 29.50861 | 9995 ft | 281 kts | 172° |
| 2026-05-05 08:37 | 40.95688 | 29.51060 | 9991 ft | 281 kts | 178° |
| 2026-05-05 08:37 | 40.93743 | 29.51133 | 9988 ft | 279 kts | 179° |
| 2026-05-05 08:37 | 40.92453 | 29.51176 | 9991 ft | 280 kts | 179° |
| 2026-05-05 08:38 | 40.90531 | 29.50892 | 9996 ft | 279 kts | 202° |
| 2026-05-05 08:38 | 40.88943 | 29.49506 | 10009 ft | 275 kts | 232° |
| 2026-05-05 08:38 | 40.88075 | 29.47317 | 10006 ft | 268 kts | 262° |
| 2026-05-05 08:38 | 40.88047 | 29.44887 | 10000 ft | 264 kts | 280° |
| 2026-05-05 08:39 | 40.88290 | 29.42489 | 9993 ft | 263 kts | 281° |
| 2026-05-05 08:39 | 40.88542 | 29.40092 | 9988 ft | 263 kts | 281° |
| 2026-05-05 08:39 | 40.88778 | 29.37871 | 9991 ft | 263 kts | 281° |
| 2026-05-05 08:39 | 40.89028 | 29.35478 | 9995 ft | 263 kts | 281° |
| 2026-05-05 08:40 | 40.89257 | 29.33071 | 9994 ft | 263 kts | 280° |
| 2026-05-05 08:40 | 40.89461 | 29.30670 | 9996 ft | 263 kts | 279° |
| 2026-05-05 08:40 | 40.89638 | 29.28291 | 9996 ft | 264 kts | 279° |
| 2026-05-05 08:40 | 40.89799 | 29.25870 | 9916 ft | 264 kts | 278° |
| 2026-05-05 08:41 | 40.89946 | 29.23473 | 9624 ft | 260 kts | 278° |
| 2026-05-05 08:41 | 40.90081 | 29.21087 | 9214 ft | 260 kts | 278° |
| 2026-05-05 08:41 | 40.90212 | 29.18702 | 8798 ft | 260 kts | 278° |
| 2026-05-05 08:41 | 40.90342 | 29.16333 | 8485 ft | 256 kts | 278° |
| 2026-05-05 08:42 | 40.90474 | 29.13989 | 8136 ft | 255 kts | 278° |
| 2026-05-05 08:42 | 40.90605 | 29.11671 | 7898 ft | 250 kts | 278° |
| 2026-05-05 08:42 | 40.90725 | 29.09395 | 7608 ft | 248 kts | 278° |
| 2026-05-05 08:42 | 40.90849 | 29.07123 | 7306 ft | 247 kts | 278° |
| 2026-05-05 08:43 | 40.90973 | 29.04864 | 7070 ft | 245 kts | 278° |
| 2026-05-05 08:43 | 40.91097 | 29.02614 | 6738 ft | 245 kts | 278° |
| 2026-05-05 08:43 | 40.91229 | 29.00381 | 6459 ft | 242 kts | 279° |
| 2026-05-05 08:43 | 40.91396 | 28.98174 | 6131 ft | 241 kts | 280° |
| 2026-05-05 08:44 | 40.91582 | 28.95974 | 5813 ft | 240 kts | 281° |
| 2026-05-05 08:44 | 40.91793 | 28.93662 | 5662 ft | 267 kts | 281° |
| 2026-05-05 08:44 | 40.92011 | 28.91272 | 5597 ft | 254 kts | 281° |
| 2026-05-05 08:44 | 40.92210 | 28.88998 | 5434 ft | 245 kts | 281° |
| 2026-05-05 08:45 | 40.92404 | 28.86786 | 5221 ft | 239 kts | 281° |
| 2026-05-05 08:45 | 40.92615 | 28.84453 | 4976 ft | 275 kts | 281° |
| 2026-05-05 08:45 | 40.92865 | 28.81914 | 4519 ft | 276 kts | 285° |
| 2026-05-05 08:45 | 40.93638 | 28.79702 | 4241 ft | 259 kts | 314° |
| 2026-05-05 08:46 | 40.94959 | 28.78199 | 4105 ft | 243 kts | 326° |
| 2026-05-05 08:46 | 40.96299 | 28.76981 | 4045 ft | 230 kts | 329° |
| 2026-05-05 08:46 | 40.97717 | 28.76120 | 4016 ft | 219 kts | 356° |
| 2026-05-05 08:46 | 40.99238 | 28.76171 | 4022 ft | 219 kts | 2° |
| 2026-05-05 08:47 | 41.00745 | 28.76168 | 4011 ft | 220 kts | 359° |
| 2026-05-05 08:47 | 41.02282 | 28.76108 | 4016 ft | 223 kts | 359° |
| 2026-05-05 08:47 | 41.03837 | 28.76099 | 4005 ft | 224 kts | 0° |
| 2026-05-05 08:47 | 41.05391 | 28.76088 | 3998 ft | 223 kts | 359° |
| 2026-05-05 08:48 | 41.06936 | 28.76050 | 3995 ft | 221 kts | 359° |
| 2026-05-05 08:48 | 41.08477 | 28.76016 | 3887 ft | 225 kts | 359° |
| 2026-05-05 08:48 | 41.10052 | 28.75978 | 3541 ft | 225 kts | 359° |
| 2026-05-05 08:48 | 41.11611 | 28.75952 | 3210 ft | 223 kts | 359° |
| 2026-05-05 08:49 | 41.13156 | 28.75918 | 2889 ft | 220 kts | 360° |
| 2026-05-05 08:49 | 41.14680 | 28.75891 | 2597 ft | 218 kts | 359° |
| 2026-05-05 08:49 | 41.16184 | 28.75856 | 2303 ft | 215 kts | 360° |
| 2026-05-05 08:49 | 41.17676 | 28.75831 | 2059 ft | 211 kts | 360° |
| 2026-05-05 08:50 | 41.19097 | 28.75806 | 1812 ft | 197 kts | 360° |
| 2026-05-05 08:50 | 41.20427 | 28.75780 | 1533 ft | 184 kts | 0° |
| 2026-05-05 08:50 | 41.21668 | 28.75757 | 1209 ft | 172 kts | 360° |
| 2026-05-05 08:50 | 41.22802 | 28.75737 | 1049 ft | 152 kts | 359° |
| 2026-05-05 08:51 | 41.23801 | 28.75717 | 826 ft | 137 kts | 358° |
| 2026-05-05 08:51 | 41.24713 | 28.75714 | 626 ft | 129 kts | 358° |
| 2026-05-05 08:51 | 41.25693 | 28.75671 | 505 ft | 147 kts | 357° |
| 2026-05-05 08:51 | 41.26684 | 28.75631 | 352 ft | 139 kts | 358° |
| 2026-05-05 08:52 | 41.27562 | 28.75627 | 331 ft | 98 kts | 0° |
| 2026-05-05 08:52 | 41.27983 | 28.75605 | 333 ft | 26 kts | 343° |
| 2026-05-05 08:52 | 41.28135 | 28.75500 | 330 ft | 19 kts | 321° |
| 2026-05-05 08:52 | 41.28157 | 28.75404 | 335 ft | 5 kts | 257° |
| 2026-05-05 08:53 | 41.28142 | 28.75363 | 332 ft | 3 kts | 222° |
| 2026-05-05 08:53 | 41.28135 | 28.75359 | 332 ft | 1 kts | 191° |
| 2026-05-05 08:53 | 41.28115 | 28.75353 | 334 ft | 8 kts | 191° |
| 2026-05-05 08:53 | 41.28034 | 28.75349 | 332 ft | 13 kts | 179° |
| 2026-05-05 08:54 | 41.27936 | 28.75352 | 333 ft | 15 kts | 179° |
| 2026-05-05 08:54 | 41.27828 | 28.75355 | 332 ft | 16 kts | 179° |
| 2026-05-05 08:54 | 41.27745 | 28.75357 | 332 ft | 1 kts | 179° |
| 2026-05-05 08:54 | 41.27731 | 28.75357 | 334 ft | 3 kts | 179° |
| 2026-05-05 08:55 | 41.27703 | 28.75358 | 332 ft | 5 kts | 179° |
| 2026-05-05 08:55 | 41.27663 | 28.75358 | 331 ft | 7 kts | 179° |
| 2026-05-05 08:55 | 41.27610 | 28.75359 | 331 ft | 8 kts | 179° |
| 2026-05-05 08:55 | 41.27546 | 28.75359 | 330 ft | 10 kts | 179° |
| 2026-05-05 08:56 | 41.27469 | 28.75360 | 334 ft | 12 kts | 179° |
| 2026-05-05 08:56 | 41.27381 | 28.75364 | 331 ft | 13 kts | 176° |
| 2026-05-05 08:56 | 41.27282 | 28.75367 | 334 ft | 15 kts | 180° |
| 2026-05-05 08:56 | 41.27172 | 28.75368 | 330 ft | 17 kts | 179° |
| 2026-05-05 08:57 | 41.27052 | 28.75372 | 330 ft | 18 kts | 179° |
| 2026-05-05 08:57 | 41.26926 | 28.75370 | 333 ft | 15 kts | 193° |
| 2026-05-05 08:57 | 41.26891 | 28.75294 | 335 ft | 10 kts | 273° |
| 2026-05-05 08:57 | 41.26890 | 28.75196 | 335 ft | 11 kts | 252° |
| 2026-05-05 08:58 | 41.26830 | 28.75142 | 331 ft | 11 kts | 218° |
| 2026-05-05 08:58 | 41.26811 | 28.75051 | 335 ft | 8 kts | 268° |
| 2026-05-05 08:58 | 41.26811 | 28.75035 | 335 ft | 0 kts | 269° |